Time;durP1;ratioP1;P1;durP2;ratioP2;P2;SDS_P1;SDS_P2;PMS_P1;PMS_P2;Temp;Humidity;BMP_temperature;BMP_pressure;BME280_temperature;BME280_humidity;BME280_pressure;Samples;Min_cycle;Max_cycle;Signal;HPM_P1;HPM_P2
2022/10/13 00:01:14;;;;;;;26.27;17.60;;;11.00;99.90;;;;;;5033341;28;20395;-81
2022/10/13 00:03:58;;;;;;;24.83;15.00;;;10.80;99.90;;;;;;5025116;28;20462;-79
2022/10/13 00:06:42;;;;;;;30.03;20.03;;;10.90;99.90;;;;;;5023725;28;20455;-81
2022/10/13 00:09:26;;;;;;;25.40;16.87;;;11.00;99.90;;;;;;5024498;28;20380;-82
2022/10/13 00:12:11;;;;;;;26.83;17.67;;;11.10;99.90;;;;;;5010570;28;20400;-81
2022/10/13 00:14:57;;;;;;;24.77;16.77;;;11.00;99.90;;;;;;5024733;28;20387;-80
2022/10/13 00:17:41;;;;;;;26.97;16.43;;;11.00;99.90;;;;;;5026566;28;20395;-81
2022/10/13 00:20:25;;;;;;;28.40;18.67;;;10.80;99.90;;;;;;5024913;28;20396;-80
2022/10/13 00:23:10;;;;;;;22.37;15.53;;;10.80;99.90;;;;;;5025188;28;20437;-81
2022/10/13 00:25:54;;;;;;;24.30;17.23;;;10.70;99.90;;;;;;5025558;28;20395;-81
2022/10/13 00:28:39;;;;;;;37.90;18.40;;;10.70;99.90;;;;;;5024116;28;20403;-81
2022/10/13 00:31:26;;;;;;;23.23;14.80;;;10.60;99.90;;;;;;5024904;28;20387;-80
2022/10/13 00:34:11;;;;;;;29.50;17.33;;;10.70;99.90;;;;;;5023444;28;20438;-79
2022/10/13 00:36:55;;;;;;;25.20;16.17;;;10.70;99.90;;;;;;5025295;28;20403;-81
2022/10/13 00:39:40;;;;;;;27.50;17.97;;;10.70;99.90;;;;;;5025869;28;20427;-81
2022/10/13 00:42:25;;;;;;;28.03;18.00;;;10.70;99.90;;;;;;5024734;28;20753;-82
2022/10/13 00:45:21;;;;;;;27.47;18.47;;;10.60;99.90;;;;;;5025158;28;20494;-81
2022/10/13 00:48:05;;;;;;;22.60;16.70;;;10.60;99.90;;;;;;5025090;28;20384;-81
2022/10/13 00:50:50;;;;;;;29.43;18.67;;;10.50;99.90;;;;;;5025595;28;20403;-81
2022/10/13 00:53:37;;;;;;;28.67;19.90;;;10.50;99.90;;;;;;5024096;28;20392;-80
2022/10/13 00:56:25;;;;;;;34.63;18.30;;;10.60;99.90;;;;;;5024876;28;20518;-80
2022/10/13 00:59:17;;;;;;;35.50;18.50;;;10.60;99.90;;;;;;5010710;28;20404;-81
2022/10/13 01:02:02;;;;;;;33.73;18.40;;;10.60;99.90;;;;;;5024721;28;20404;-81
2022/10/13 01:04:47;;;;;;;23.93;15.57;;;10.60;99.90;;;;;;5025704;28;20447;-81
2022/10/13 01:07:34;;;;;;;29.00;16.17;;;10.40;99.90;;;;;;5010502;28;20930;-81
2022/10/13 01:10:42;;;;;;;39.30;18.80;;;10.30;99.90;;;;;;5026773;28;20387;-80
2022/10/13 01:13:38;;;;;;;29.57;17.30;;;10.40;99.90;;;;;;5032020;28;20399;-80
2022/10/13 01:16:34;;;;;;;27.40;15.50;;;10.40;99.90;;;;;;5024748;28;20396;-81
2022/10/13 01:19:43;;;;;;;34.40;17.50;;;10.40;99.90;;;;;;5025051;28;20459;-81
2022/10/13 01:23:08;;;;;;;30.50;16.80;;;10.40;99.90;;;;;;5025525;28;20526;-81
2022/10/13 01:26:22;;;;;;;27.70;17.40;;;10.40;99.90;;;;;;5016994;28;20435;-80
2022/10/13 01:29:42;;;;;;;31.37;16.53;;;10.30;99.90;;;;;;5013873;28;20408;-80
2022/10/13 01:33:00;;;;;;;36.23;17.93;;;10.30;99.90;;;;;;5027577;28;20383;-81
2022/10/13 01:36:12;;;;;;;26.77;15.50;;;10.40;99.90;;;;;;5026900;28;20468;-80
2022/10/13 01:39:12;;;;;;;26.97;17.47;;;10.30;99.90;;;;;;5028590;28;20404;-81
2022/10/13 01:42:10;;;;;;;22.70;15.13;;;10.40;99.90;;;;;;5038478;28;20406;-78
2022/10/13 01:45:00;;;;;;;25.60;16.30;;;10.40;99.90;;;;;;5034089;28;20439;-81
2022/10/13 01:47:46;;;;;;;28.20;16.93;;;10.50;99.90;;;;;;5028375;28;20805;-81
2022/10/13 01:50:33;;;;;;;27.10;16.63;;;10.50;99.90;;;;;;5014481;28;20388;-81
2022/10/13 01:53:19;;;;;;;25.60;17.20;;;10.60;99.90;;;;;;5027986;28;20406;-81
2022/10/13 01:56:04;;;;;;;23.27;15.63;;;10.60;99.90;;;;;;5029046;28;20392;-81
2022/10/13 01:58:50;;;;;;;24.67;14.70;;;10.50;99.90;;;;;;5028828;28;20391;-81
2022/10/13 02:01:55;;;;;;;28.33;15.90;;;10.40;99.90;;;;;;5027880;28;20430;-81
2022/10/13 02:05:06;;;;;;;25.63;16.50;;;10.30;99.90;;;;;;5028465;28;20800;-81
2022/10/13 02:08:16;;;;;;;29.80;16.23;;;10.20;99.90;;;;;;5028418;28;20380;-81
2022/10/13 02:11:14;;;;;;;23.80;14.90;;;10.20;99.90;;;;;;5028680;28;20460;-81
2022/10/13 02:14:12;;;;;;;29.20;16.10;;;10.30;99.90;;;;;;5027364;28;20391;-80
2022/10/13 02:17:01;;;;;;;23.93;14.90;;;10.30;99.90;;;;;;5027207;28;20419;-81
2022/10/13 02:19:46;;;;;;;26.93;16.27;;;10.40;99.90;;;;;;5028718;28;20451;-81
2022/10/13 02:22:35;;;;;;;27.30;16.37;;;10.30;99.90;;;;;;5027216;28;20431;-80
2022/10/13 02:25:20;;;;;;;24.87;15.47;;;10.20;99.90;;;;;;5027096;28;21013;-81
2022/10/13 02:28:05;;;;;;;30.20;17.37;;;10.20;99.90;;;;;;5027609;28;20399;-80
2022/10/13 02:30:50;;;;;;;26.03;15.83;;;10.20;99.90;;;;;;5028261;28;20395;-80
2022/10/13 02:33:34;;;;;;;24.33;16.20;;;10.20;99.90;;;;;;5013873;28;20419;-80
2022/10/13 02:36:19;;;;;;;22.87;14.97;;;10.20;99.90;;;;;;5027810;28;20414;-81
2022/10/13 02:39:06;;;;;;;17.47;13.10;;;10.40;99.90;;;;;;5012704;28;20561;-81
2022/10/13 02:41:51;;;;;;;21.33;16.43;;;10.40;99.90;;;;;;5026639;28;20395;-81
2022/10/13 02:44:35;;;;;;;27.50;16.20;;;10.30;99.90;;;;;;5025398;28;20478;-81
2022/10/13 02:47:19;;;;;;;25.90;16.27;;;10.30;99.90;;;;;;5026013;28;20435;-81
2022/10/13 02:50:04;;;;;;;21.43;15.97;;;10.30;99.90;;;;;;5026483;28;20487;-79
2022/10/13 02:52:49;;;;;;;23.63;13.70;;;10.30;99.90;;;;;;5027018;28;20399;-80
2022/10/13 02:55:33;;;;;;;23.30;15.70;;;10.50;99.90;;;;;;5026018;28;20430;-81
2022/10/13 02:58:17;;;;;;;20.10;14.50;;;10.50;99.90;;;;;;5026764;28;20416;-81
2022/10/13 03:01:07;;;;;;;23.93;15.33;;;10.40;99.90;;;;;;5026849;28;20419;-81
2022/10/13 03:03:51;;;;;;;27.37;17.13;;;10.40;99.90;;;;;;5026648;28;20451;-81
2022/10/13 03:06:35;;;;;;;25.87;17.83;;;10.40;99.90;;;;;;5026771;28;20384;-79
2022/10/13 03:09:19;;;;;;;27.40;15.70;;;10.40;99.90;;;;;;5026399;28;20450;-81
2022/10/13 03:12:04;;;;;;;22.97;16.70;;;10.30;99.90;;;;;;5025003;28;20739;-81
2022/10/13 03:14:48;;;;;;;20.47;14.47;;;10.40;99.90;;;;;;5026530;28;20787;-81
2022/10/13 03:17:33;;;;;;;21.43;13.00;;;10.40;99.90;;;;;;5012009;28;20472;-81
2022/10/13 03:20:17;;;;;;;27.30;15.60;;;10.40;99.90;;;;;;5011257;28;20455;-81
2022/10/13 03:23:02;;;;;;;25.70;15.93;;;10.20;99.90;;;;;;5025945;28;20471;-81
2022/10/13 03:25:46;;;;;;;32.10;16.00;;;10.20;99.90;;;;;;5025684;28;20370;-81
2022/10/13 03:28:30;;;;;;;31.97;17.07;;;10.20;99.90;;;;;;5026361;28;20434;-81
2022/10/13 03:31:14;;;;;;;37.10;16.83;;;10.30;99.90;;;;;;5025385;28;20375;-80
2022/10/13 03:33:58;;;;;;;26.97;14.90;;;10.40;99.90;;;;;;5025478;28;20395;-81
2022/10/13 03:36:42;;;;;;;23.63;15.13;;;10.40;99.90;;;;;;5025537;28;20431;-78
2022/10/13 03:39:27;;;;;;;20.77;13.87;;;10.30;99.90;;;;;;5029728;28;20464;-80
2022/10/13 03:42:11;;;;;;;27.57;14.87;;;10.40;99.90;;;;;;5034332;28;20409;-81
2022/10/13 03:44:56;;;;;;;25.33;16.13;;;10.40;99.90;;;;;;5032877;28;20447;-80
2022/10/13 03:47:40;;;;;;;27.30;16.90;;;10.50;99.90;;;;;;5020971;28;20452;-81
2022/10/13 03:50:24;;;;;;;27.63;17.30;;;10.60;99.90;;;;;;5019855;28;20407;-81
2022/10/13 03:53:10;;;;;;;27.10;16.23;;;10.70;99.90;;;;;;5025822;28;20403;-81
2022/10/13 03:55:55;;;;;;;22.77;13.77;;;10.70;99.90;;;;;;5024590;28;20403;-81
2022/10/13 03:58:40;;;;;;;31.20;18.97;;;10.70;99.90;;;;;;5024011;28;20940;-80
2022/10/13 04:01:26;;;;;;;23.30;16.13;;;10.70;99.90;;;;;;5025224;28;20387;-81
2022/10/13 04:04:11;;;;;;;23.10;15.97;;;10.60;99.90;;;;;;5025386;28;20443;-81
2022/10/13 04:06:55;;;;;;;23.50;15.40;;;10.60;99.90;;;;;;5025729;28;20388;-81
2022/10/13 04:09:40;;;;;;;22.10;14.93;;;10.40;99.90;;;;;;5024589;28;20399;-81
2022/10/13 04:12:24;;;;;;;22.17;15.03;;;10.50;99.90;;;;;;5018009;28;20881;-81
2022/10/13 04:15:08;;;;;;;23.23;14.47;;;10.30;99.90;;;;;;5006004;28;20461;-81
2022/10/13 04:17:53;;;;;;;24.13;15.13;;;10.40;99.90;;;;;;5005782;28;20475;-80
2022/10/13 04:20:38;;;;;;;28.30;14.80;;;10.30;99.90;;;;;;5006737;28;20849;-80
2022/10/13 04:23:22;;;;;;;26.27;15.50;;;10.40;99.90;;;;;;5006242;28;20444;-80
2022/10/13 04:26:15;;;;;;;22.13;14.83;;;10.40;99.90;;;;;;5007018;28;20452;-80
2022/10/13 04:29:01;;;;;;;26.63;17.63;;;10.40;99.90;;;;;;5005447;28;20469;-81
2022/10/13 04:31:45;;;;;;;24.77;15.47;;;10.60;99.90;;;;;;5004941;28;20436;-81
2022/10/13 04:34:29;;;;;;;26.40;17.20;;;10.80;99.90;;;;;;5006135;28;20415;-80
2022/10/13 04:37:13;;;;;;;27.60;15.13;;;10.80;99.90;;;;;;5004657;28;20416;-80
2022/10/13 04:39:57;;;;;;;24.23;15.30;;;10.90;99.90;;;;;;5006114;28;20400;-80
2022/10/13 04:42:41;;;;;;;34.43;19.77;;;11.00;99.90;;;;;;5005644;28;20448;-80
2022/10/13 04:45:26;;;;;;;45.83;20.33;;;10.90;99.90;;;;;;5004731;28;20464;-79
2022/10/13 04:48:10;;;;;;;29.57;17.43;;;11.00;99.90;;;;;;5005276;28;20402;-81
2022/10/13 04:51:02;;;;;;;28.13;20.63;;;11.00;99.90;;;;;;5005984;28;20396;-81
2022/10/13 04:53:47;;;;;;;34.50;20.20;;;11.00;99.90;;;;;;5005236;28;20385;-80
2022/10/13 04:56:31;;;;;;;30.40;19.70;;;11.10;99.90;;;;;;5012445;28;20479;-80
2022/10/13 04:59:16;;;;;;;30.83;17.80;;;11.20;99.90;;;;;;5010924;28;20392;-80
2022/10/13 05:02:02;;;;;;;36.83;20.87;;;11.10;99.90;;;;;;5025493;28;20396;-80
2022/10/13 05:04:46;;;;;;;41.00;20.97;;;11.20;99.90;;;;;;5018134;28;20494;-81
2022/10/13 05:07:30;;;;;;;30.77;20.03;;;11.40;99.90;;;;;;5023560;28;20469;-78
2022/10/13 05:10:15;;;;;;;33.70;19.57;;;11.40;99.90;;;;;;5016447;28;20428;-80
2022/10/13 05:12:59;;;;;;;33.27;19.63;;;11.50;99.90;;;;;;5011705;28;20396;-81
2022/10/13 05:15:43;;;;;;;30.90;18.23;;;11.40;99.90;;;;;;5011107;28;20408;-81
2022/10/13 05:18:27;;;;;;;26.70;18.47;;;11.40;99.90;;;;;;5025197;28;20513;-81
2022/10/13 05:21:16;;;;;;;25.20;16.70;;;11.30;99.90;;;;;;5004512;28;20435;-80
2022/10/13 05:24:01;;;;;;;32.67;18.67;;;11.20;99.90;;;;;;5020195;28;20471;-78
2022/10/13 05:26:45;;;;;;;40.07;20.40;;;11.10;99.90;;;;;;5015452;28;20483;-81
2022/10/13 05:29:30;;;;;;;27.20;19.43;;;11.10;99.90;;;;;;4973014;28;20498;-80
2022/10/13 05:32:14;;;;;;;28.67;17.20;;;11.00;99.90;;;;;;5003502;28;20412;-80
2022/10/13 05:34:58;;;;;;;29.17;17.40;;;11.10;99.90;;;;;;4999789;28;20436;-80
2022/10/13 05:37:43;;;;;;;33.80;19.50;;;11.10;99.90;;;;;;4996962;28;20416;-79
2022/10/13 05:40:28;;;;;;;30.87;18.60;;;11.00;99.90;;;;;;5003560;28;20456;-80
2022/10/13 05:43:12;;;;;;;30.30;19.23;;;11.00;99.90;;;;;;4988233;28;20444;-80
2022/10/13 05:45:57;;;;;;;38.93;22.50;;;11.00;99.90;;;;;;4990597;28;20575;-80
2022/10/13 05:48:41;;;;;;;34.40;19.60;;;11.00;99.90;;;;;;4993430;28;20425;-79
2022/10/13 05:51:44;;;;;;;23.43;17.17;;;11.20;99.90;;;;;;4996603;28;20409;-80
2022/10/13 05:54:35;;;;;;;36.23;18.93;;;11.30;99.90;;;;;;4998580;28;20483;-80
2022/10/13 05:57:25;;;;;;;35.00;20.73;;;11.30;99.90;;;;;;4992292;28;20519;-80
2022/10/13 06:00:13;;;;;;;38.63;19.70;;;11.30;99.90;;;;;;5014747;28;20458;-80
2022/10/13 06:03:07;;;;;;;38.90;18.77;;;11.40;99.90;;;;;;5030524;28;20443;-80
2022/10/13 06:05:51;;;;;;;35.10;20.53;;;11.40;99.90;;;;;;5034396;28;20498;-78
2022/10/13 06:08:37;;;;;;;33.80;20.50;;;11.50;99.90;;;;;;5033609;28;20459;-79
2022/10/13 06:11:21;;;;;;;51.10;22.10;;;11.40;99.90;;;;;;5032698;28;20490;-79
2022/10/13 06:14:05;;;;;;;30.97;18.70;;;11.40;99.90;;;;;;5023016;28;20427;-79
2022/10/13 06:16:49;;;;;;;40.10;21.17;;;11.40;99.90;;;;;;5023400;28;20426;-79
2022/10/13 06:19:34;;;;;;;34.87;17.83;;;11.50;99.90;;;;;;5027770;28;20486;-79
2022/10/13 06:22:18;;;;;;;30.57;20.50;;;11.60;99.90;;;;;;5028490;28;20435;-80
2022/10/13 06:25:04;;;;;;;57.47;23.60;;;11.70;99.90;;;;;;5026094;28;20952;-79
2022/10/13 06:27:49;;;;;;;39.03;21.93;;;11.70;99.90;;;;;;5026755;28;20424;-79
2022/10/13 06:30:33;;;;;;;36.40;19.67;;;11.70;99.90;;;;;;5015336;28;20451;-80
2022/10/13 06:33:17;;;;;;;35.37;20.03;;;11.70;99.90;;;;;;5017734;28;20423;-79
2022/10/13 06:36:03;;;;;;;30.17;18.20;;;11.70;99.90;;;;;;5015364;28;20484;-79
2022/10/13 06:38:48;;;;;;;35.23;22.40;;;11.70;99.90;;;;;;5019137;28;20550;-79
2022/10/13 06:41:32;;;;;;;34.53;19.60;;;11.70;99.90;;;;;;5009603;28;20423;-80
2022/10/13 06:44:16;;;;;;;31.47;18.43;;;11.70;99.90;;;;;;5005663;28;20466;-79
2022/10/13 06:47:01;;;;;;;31.90;20.77;;;11.60;99.90;;;;;;5006404;28;20418;-79
2022/10/13 06:49:46;;;;;;;35.63;20.57;;;11.60;99.90;;;;;;5006912;28;20841;-79
2022/10/13 06:52:30;;;;;;;31.00;20.13;;;11.80;99.90;;;;;;5008237;28;20426;-79
2022/10/13 06:55:14;;;;;;;33.30;20.40;;;11.70;99.90;;;;;;5010637;28;20562;-80
2022/10/13 06:57:58;;;;;;;33.43;19.10;;;11.80;99.90;;;;;;5009623;28;20469;-80
2022/10/13 07:00:43;;;;;;;35.10;20.57;;;11.70;99.90;;;;;;5007812;28;20497;-79
2022/10/13 07:03:27;;;;;;;35.43;22.20;;;11.80;99.90;;;;;;5005836;28;20462;-80
2022/10/13 07:06:12;;;;;;;43.73;20.37;;;11.90;99.90;;;;;;5008631;28;20436;-80
2022/10/13 07:08:56;;;;;;;33.73;18.90;;;11.90;99.90;;;;;;5011351;28;20443;-80
2022/10/13 07:11:44;;;;;;;29.90;19.30;;;11.90;99.90;;;;;;5007199;28;20416;-79
2022/10/13 07:14:28;;;;;;;35.33;21.10;;;11.80;99.90;;;;;;5008990;28;20444;-79
2022/10/13 07:17:13;;;;;;;32.53;19.23;;;11.70;99.90;;;;;;5006206;28;20766;-80
2022/10/13 07:19:57;;;;;;;33.93;18.70;;;11.80;99.90;;;;;;5008825;28;20478;-80
2022/10/13 07:22:44;;;;;;;35.27;20.13;;;11.70;99.90;;;;;;5011014;28;20470;-79
2022/10/13 07:25:28;;;;;;;31.20;19.37;;;11.90;99.90;;;;;;5010116;28;20562;-79
2022/10/13 07:28:12;;;;;;;31.90;19.00;;;11.80;99.90;;;;;;5009253;28;20415;-78
2022/10/13 07:30:56;;;;;;;32.50;19.77;;;11.90;99.90;;;;;;5007777;28;20427;-79
2022/10/13 07:33:42;;;;;;;36.83;20.57;;;11.90;99.90;;;;;;5007287;28;20439;-79
2022/10/13 07:36:26;;;;;;;32.67;18.47;;;12.10;99.90;;;;;;5009874;28;20434;-79
2022/10/13 07:39:11;;;;;;;34.43;19.23;;;12.20;99.90;;;;;;5007914;28;20463;-79
2022/10/13 07:41:55;;;;;;;32.70;18.07;;;12.10;99.90;;;;;;5007755;28;20504;-80
2022/10/13 07:44:39;;;;;;;34.47;20.00;;;12.00;99.90;;;;;;5003235;28;20463;-79
2022/10/13 07:47:24;;;;;;;25.93;18.60;;;12.00;99.90;;;;;;5005101;28;20431;-80
2022/10/13 07:50:09;;;;;;;24.73;16.47;;;12.10;99.90;;;;;;5007510;28;20467;-82
2022/10/13 07:52:53;;;;;;;27.20;18.40;;;11.90;99.90;;;;;;5002867;28;20446;-81
2022/10/13 07:55:37;;;;;;;30.83;20.50;;;11.90;99.90;;;;;;4999116;28;20431;-81
2022/10/13 07:58:22;;;;;;;32.43;20.57;;;11.90;99.90;;;;;;4993060;28;21334;-81
2022/10/13 08:01:07;;;;;;;35.03;20.67;;;12.00;99.90;;;;;;5000666;28;20448;-81
2022/10/13 08:03:55;;;;;;;34.20;21.07;;;12.20;99.90;;;;;;5005881;28;20463;-80
2022/10/13 08:06:40;;;;;;;26.90;19.87;;;12.20;99.90;;;;;;5006165;28;20427;-80
2022/10/13 08:09:26;;;;;;;25.30;17.80;;;12.20;99.90;;;;;;5019110;28;20507;-79
2022/10/13 08:12:11;;;;;;;29.20;16.50;;;12.10;99.90;;;;;;5012822;28;20435;-81
2022/10/13 08:14:56;;;;;;;26.80;17.00;;;12.30;99.90;;;;;;5005300;28;20439;-80
2022/10/13 08:17:40;;;;;;;28.23;17.70;;;12.40;99.90;;;;;;5005419;28;20486;-82
2022/10/13 08:20:25;;;;;;;26.83;17.73;;;12.50;99.90;;;;;;5003923;28;20935;-81
2022/10/13 08:23:09;;;;;;;24.27;17.77;;;12.60;99.90;;;;;;5007940;28;20462;-80
2022/10/13 08:25:54;;;;;;;39.23;16.77;;;12.70;99.90;;;;;;5007508;28;21032;-82
2022/10/13 08:28:38;;;;;;;26.83;16.97;;;12.60;99.90;;;;;;5013197;28;20443;-79
2022/10/13 08:31:23;;;;;;;26.47;16.20;;;12.60;99.90;;;;;;5013245;28;20443;-80
2022/10/13 08:34:07;;;;;;;28.47;17.70;;;12.40;99.90;;;;;;5012544;28;20497;-81
2022/10/13 08:36:55;;;;;;;28.27;16.83;;;12.40;99.90;;;;;;5007057;28;21174;-80
2022/10/13 08:39:39;;;;;;;28.27;18.57;;;12.60;99.90;;;;;;5007083;28;20439;-79
2022/10/13 08:42:24;;;;;;;28.60;16.90;;;12.30;99.90;;;;;;5006824;28;20431;-81
2022/10/13 08:45:18;;;;;;;32.47;18.47;;;12.30;99.90;;;;;;5008015;28;20458;-80
2022/10/13 08:48:09;;;;;;;39.63;18.83;;;12.40;99.90;;;;;;5004683;28;20464;-80
2022/10/13 08:50:58;;;;;;;36.43;18.57;;;12.60;99.90;;;;;;5004063;28;20443;-80
2022/10/13 08:53:45;;;;;;;27.30;16.70;;;12.50;99.90;;;;;;5005337;28;20427;-81
2022/10/13 08:56:32;;;;;;;32.30;18.60;;;12.50;99.90;;;;;;4996569;28;20480;-81
2022/10/13 08:59:17;;;;;;;38.67;19.87;;;12.60;99.90;;;;;;5006795;28;20435;-82
2022/10/13 09:02:13;;;;;;;35.10;18.07;;;12.60;99.90;;;;;;5007816;28;20438;-82
2022/10/13 09:05:01;;;;;;;36.00;17.30;;;12.70;99.90;;;;;;5003819;28;20514;-81
2022/10/13 09:07:45;;;;;;;28.73;19.13;;;12.60;99.90;;;;;;5000257;28;20535;-81
2022/10/13 09:10:30;;;;;;;37.43;18.00;;;12.80;99.90;;;;;;5008638;28;20423;-80
2022/10/13 09:13:14;;;;;;;39.53;19.57;;;12.70;99.90;;;;;;5003691;28;20452;-81
2022/10/13 09:15:58;;;;;;;26.00;17.40;;;12.70;99.90;;;;;;5001602;28;20467;-82
2022/10/13 09:18:43;;;;;;;33.97;19.10;;;12.70;99.90;;;;;;5000798;28;21063;-81
2022/10/13 09:21:28;;;;;;;31.50;18.83;;;12.70;99.90;;;;;;5003415;28;20435;-81
2022/10/13 09:24:16;;;;;;;35.23;19.37;;;12.80;99.90;;;;;;5015275;28;20610;-81
2022/10/13 09:27:09;;;;;;;41.73;20.37;;;12.90;99.90;;;;;;5001828;28;20991;-81
2022/10/13 09:29:54;;;;;;;33.93;18.13;;;13.20;99.90;;;;;;4995956;28;20490;-80
2022/10/13 09:32:39;;;;;;;35.43;17.17;;;13.00;99.90;;;;;;5001170;28;20427;-81
2022/10/13 09:35:24;;;;;;;34.60;18.40;;;13.00;99.90;;;;;;4995363;28;21212;-79
2022/10/13 09:38:19;;;;;;;37.30;17.70;;;13.10;99.90;;;;;;4999249;28;20450;-80
2022/10/13 09:41:12;;;;;;;36.20;19.33;;;13.30;99.90;;;;;;5000218;28;20785;-81
2022/10/13 09:43:59;;;;;;;36.07;16.27;;;13.20;99.90;;;;;;5001895;28;20502;-79
2022/10/13 09:46:50;;;;;;;46.57;20.97;;;13.20;99.90;;;;;;5001603;28;21024;-80
2022/10/13 09:49:40;;;;;;;31.60;18.00;;;13.30;99.90;;;;;;5004007;28;20483;-81
2022/10/13 09:52:24;;;;;;;42.63;20.87;;;13.30;99.90;;;;;;5005213;28;20518;-82
2022/10/13 09:55:38;;;;;;;46.00;19.77;;;13.30;99.90;;;;;;5003501;28;20527;-80
2022/10/13 09:58:29;;;;;;;36.40;17.90;;;13.20;99.90;;;;;;5006432;28;20482;-81
2022/10/13 10:01:20;;;;;;;37.53;18.10;;;13.30;99.90;;;;;;5005022;28;21082;-81
2022/10/13 10:04:09;;;;;;;33.70;19.20;;;13.20;99.90;;;;;;5005061;28;20471;-81
2022/10/13 10:06:54;;;;;;;40.60;19.93;;;13.40;99.90;;;;;;5000363;28;20455;-81
2022/10/13 10:09:44;;;;;;;34.47;19.97;;;13.50;99.90;;;;;;5004934;28;20510;-79
2022/10/13 10:12:31;;;;;;;35.87;17.20;;;13.40;99.90;;;;;;5005718;28;20442;-80
2022/10/13 10:15:23;;;;;;;29.93;16.33;;;13.50;99.90;;;;;;5005241;28;20435;-80
2022/10/13 10:18:15;;;;;;;32.60;16.20;;;13.40;99.90;;;;;;5004014;28;20423;-80
2022/10/13 10:21:07;;;;;;;41.60;17.27;;;13.70;99.90;;;;;;4993252;28;20451;-79
2022/10/13 10:24:00;;;;;;;35.97;18.80;;;13.70;99.90;;;;;;4998516;28;21563;-79
2022/10/13 10:26:57;;;;;;;45.63;17.00;;;13.70;99.90;;;;;;5007248;28;20515;-80
2022/10/13 10:30:14;;;;;;;31.20;17.80;;;13.70;99.90;;;;;;4966100;28;20517;-78
2022/10/13 10:33:09;;;;;;;36.97;18.13;;;13.50;99.90;;;;;;4962683;28;20497;-80
2022/10/13 10:36:04;;;;;;;26.70;16.90;;;13.30;99.90;;;;;;4967512;28;20501;-80
2022/10/13 10:38:55;;;;;;;36.70;19.73;;;13.40;99.90;;;;;;4964722;28;20444;-79
2022/10/13 10:42:05;;;;;;;39.23;18.07;;;13.60;99.90;;;;;;4966154;28;20437;-79
2022/10/13 10:44:52;;;;;;;34.03;17.13;;;13.70;99.90;;;;;;4966845;28;20512;-81
2022/10/13 10:47:40;;;;;;;31.77;17.07;;;13.80;99.90;;;;;;4964545;28;20436;-79
2022/10/13 10:50:26;;;;;;;31.77;17.37;;;13.60;99.90;;;;;;4966403;28;21085;-79
2022/10/13 10:53:25;;;;;;;47.50;20.70;;;13.80;99.90;;;;;;4968266;28;20437;-81
2022/10/13 10:56:38;;;;;;;27.70;17.03;;;13.90;99.90;;;;;;4947532;28;20441;-80
2022/10/13 10:59:45;;;;;;;33.50;18.43;;;13.80;99.90;;;;;;4949917;28;20545;-81
2022/10/13 11:02:52;;;;;;;27.33;16.10;;;13.90;99.90;;;;;;4994539;28;20567;-78
2022/10/13 11:06:02;;;;;;;31.63;16.83;;;13.90;99.90;;;;;;4999563;28;20464;-81
2022/10/13 11:08:48;;;;;;;32.40;21.27;;;13.90;99.90;;;;;;5001732;28;20451;-81
2022/10/13 11:11:35;;;;;;;31.43;19.73;;;13.80;99.90;;;;;;4999219;28;20474;-78
2022/10/13 11:14:25;;;;;;;28.60;16.03;;;13.60;99.90;;;;;;4990230;28;20587;-80
2022/10/13 11:17:17;;;;;;;34.27;16.60;;;13.60;99.90;;;;;;5001247;28;20480;-81
2022/10/13 11:20:41;;;;;;;35.77;18.20;;;13.70;99.90;;;;;;4999436;28;20503;-80
2022/10/13 11:23:33;;;;;;;40.90;19.33;;;13.50;99.90;;;;;;5003632;28;20439;-80
2022/10/13 11:26:28;;;;;;;32.53;18.37;;;13.80;99.90;;;;;;4991608;28;20516;-78
2022/10/13 11:29:18;;;;;;;27.60;18.70;;;13.80;99.90;;;;;;4993863;28;20455;-79
2022/10/13 11:32:03;;;;;;;32.70;16.67;;;13.70;99.90;;;;;;5000638;28;20438;-79
2022/10/13 11:35:17;;;;;;;45.27;18.07;;;13.70;99.90;;;;;;5009503;28;20456;-79
2022/10/13 11:38:18;;;;;;;24.03;16.50;;;13.70;99.90;;;;;;5009251;28;20435;-81
2022/10/13 11:41:17;;;;;;;35.40;16.80;;;13.70;99.90;;;;;;5002537;28;20431;-81
2022/10/13 11:44:20;;;;;;;36.60;20.57;;;13.70;99.90;;;;;;5007342;28;20459;-78
2022/10/13 11:47:42;;;;;;;35.60;19.80;;;13.80;99.90;;;;;;5007773;28;20845;-81
2022/10/13 11:50:52;;;;;;;33.13;18.13;;;13.70;99.90;;;;;;5006867;28;20467;-81
2022/10/13 11:54:03;;;;;;;28.00;17.70;;;13.90;99.90;;;;;;5010435;28;20430;-80
2022/10/13 11:56:52;;;;;;;31.33;17.63;;;14.20;99.90;;;;;;5006516;28;20466;-79
2022/10/13 11:59:36;;;;;;;26.60;17.50;;;14.20;99.90;;;;;;5006681;28;20934;-81
2022/10/13 12:02:23;;;;;;;32.83;18.70;;;14.20;99.90;;;;;;4996005;28;20450;-82
2022/10/13 12:05:26;;;;;;;29.60;16.50;;;14.20;99.90;;;;;;4995967;28;20886;-82
2022/10/13 12:08:10;;;;;;;33.53;17.17;;;14.30;99.90;;;;;;5006937;28;20511;-81
2022/10/13 12:10:56;;;;;;;32.50;17.73;;;14.40;99.90;;;;;;5006467;28;20426;-81
2022/10/13 12:13:46;;;;;;;25.50;16.93;;;14.60;99.90;;;;;;5005087;28;20490;-82
2022/10/13 12:16:30;;;;;;;26.23;16.70;;;14.60;99.90;;;;;;5007326;28;20776;-82
2022/10/13 12:19:20;;;;;;;24.47;14.97;;;14.50;99.90;;;;;;4995541;28;21007;-82
2022/10/13 12:22:11;;;;;;;24.00;15.73;;;14.70;99.90;;;;;;5008241;28;20423;-82
2022/10/13 12:24:59;;;;;;;29.10;15.67;;;14.80;99.90;;;;;;5011907;28;20474;-81
2022/10/13 12:27:54;;;;;;;26.47;16.17;;;15.00;99.90;;;;;;5007599;28;20559;-82
2022/10/13 12:30:38;;;;;;;22.40;15.13;;;14.70;99.90;;;;;;5008291;28;20474;-80
2022/10/13 12:33:30;;;;;;;28.13;16.63;;;14.70;99.90;;;;;;5010759;28;20423;-81
2022/10/13 12:36:19;;;;;;;25.37;15.30;;;14.90;99.90;;;;;;5004606;28;20443;-80
2022/10/13 12:39:13;;;;;;;23.93;14.47;;;14.70;99.90;;;;;;5014592;28;20430;-81
2022/10/13 12:42:00;;;;;;;20.63;14.70;;;15.00;99.90;;;;;;5007797;28;20532;-81
2022/10/13 12:44:45;;;;;;;22.67;13.63;;;14.90;99.90;;;;;;5006548;28;20503;-80
2022/10/13 12:47:47;;;;;;;25.37;13.57;;;14.90;99.90;;;;;;5014542;28;20431;-81
2022/10/13 12:50:36;;;;;;;26.57;13.90;;;15.00;99.90;;;;;;5008923;28;20939;-81
2022/10/13 12:53:27;;;;;;;23.80;14.43;;;15.10;99.90;;;;;;4997116;28;20518;-81
2022/10/13 12:56:30;;;;;;;23.67;13.70;;;14.80;99.90;;;;;;5011961;28;20431;-81
2022/10/13 12:59:17;;;;;;;21.00;16.37;;;14.80;99.90;;;;;;5010056;28;20539;-80
2022/10/13 13:02:16;;;;;;;20.87;14.40;;;14.80;99.90;;;;;;5011749;28;20432;-79
2022/10/13 13:05:01;;;;;;;27.67;16.10;;;14.70;99.90;;;;;;5004569;28;20460;-81
2022/10/13 13:08:23;;;;;;;24.63;13.90;;;14.80;99.90;;;;;;4987917;28;20779;-80
2022/10/13 13:11:21;;;;;;;33.23;16.17;;;14.70;99.90;;;;;;4992133;28;20434;-79
2022/10/13 13:14:24;;;;;;;24.10;14.80;;;14.60;99.90;;;;;;4986066;28;20429;-81
2022/10/13 13:17:21;;;;;;;25.57;15.03;;;14.60;99.90;;;;;;4980304;28;20550;-79
2022/10/13 13:20:27;;;;;;;26.40;14.77;;;14.70;99.90;;;;;;4977008;28;20549;-80
2022/10/13 13:23:12;;;;;;;26.73;14.10;;;14.60;99.90;;;;;;4981581;28;20456;-81
2022/10/13 13:26:13;;;;;;;20.67;15.97;;;14.60;99.90;;;;;;4973417;28;20463;-80
2022/10/13 13:28:58;;;;;;;23.90;14.73;;;14.60;99.90;;;;;;4982486;28;20575;-81
2022/10/13 13:31:42;;;;;;;29.83;16.33;;;14.70;99.90;;;;;;4936723;29;20519;-82
2022/10/13 13:34:26;;;;;;;24.73;16.03;;;14.70;99.90;;;;;;4937552;29;20577;-80
2022/10/13 13:37:19;;;;;;;27.80;17.03;;;14.70;99.90;;;;;;4939421;29;20560;-81
2022/10/13 13:40:05;;;;;;;30.00;13.93;;;14.50;99.90;;;;;;4937107;29;20488;-79
2022/10/13 13:42:49;;;;;;;29.10;14.50;;;14.60;99.90;;;;;;4933316;29;20430;-80
2022/10/13 13:45:37;;;;;;;21.43;13.17;;;14.60;99.90;;;;;;4948737;28;20500;-82
2022/10/13 13:48:21;;;;;;;19.23;12.70;;;14.60;99.90;;;;;;4957209;28;20977;-81
2022/10/13 13:51:08;;;;;;;19.20;14.47;;;14.60;99.90;;;;;;4968491;28;20444;-81
2022/10/13 13:53:52;;;;;;;19.40;14.00;;;14.70;99.90;;;;;;4968993;28;20456;-81
2022/10/13 13:56:37;;;;;;;23.17;14.43;;;14.60;99.90;;;;;;4957679;28;20916;-81
2022/10/13 13:59:21;;;;;;;17.50;12.40;;;14.90;99.90;;;;;;4956043;28;20499;-81
2022/10/13 14:02:10;;;;;;;25.90;23.47;;;15.00;99.90;;;;;;4970255;28;20475;-80
2022/10/13 14:04:55;;;;;;;15.90;12.60;;;14.80;99.90;;;;;;5009909;28;20510;-79
2022/10/13 14:07:40;;;;;;;19.07;12.17;;;14.90;99.90;;;;;;5010508;28;20479;-81
2022/10/13 14:10:25;;;;;;;20.73;12.80;;;14.70;99.90;;;;;;5009920;28;20426;-80
2022/10/13 14:13:09;;;;;;;22.20;15.13;;;14.80;99.90;;;;;;5012270;28;20468;-81
2022/10/13 14:15:57;;;;;;;19.73;12.37;;;14.80;99.90;;;;;;5009874;28;20427;-81
2022/10/13 14:18:42;;;;;;;18.53;13.07;;;14.80;99.90;;;;;;5010892;28;20492;-81